HI1060 MDJB-TJSJ
Flight info
| Callsign | HI1060 |
|---|---|
| Flight time | 0h 40m |
| Altitude | 37000 |
| Route | OLITA UL577 CDO UT15 MELLA DCT SJU |
| Aircraft | C25B/M-SDE2E3FGHRWXY/LB1 |
Departure
| Time | 2026-04-25 02:06 |
|---|---|
| Airport | La Isabela International Airport (MDJB) |
Arrival
| Time | 2026-04-25 02:46 |
|---|---|
| Airport | Luis Munoz Marin International Airport (TJSJ) |
| Time | Latitude | Longitude | Altitude | Speed | Heading |
|---|---|---|---|---|---|
| 2026-04-25 01:46 | 18.57639 | -69.98278 | 98 ft | 0 kts | 95° |
| 2026-04-25 02:03 | 18.57646 | -69.98266 | 89 ft | 6 kts | 6° |
| 2026-04-25 02:03 | 18.57727 | -69.98349 | 89 ft | 22 kts | 9° |
| 2026-04-25 02:03 | 18.57880 | -69.98327 | 98 ft | 23 kts | 8° |
| 2026-04-25 02:04 | 18.57956 | -69.98430 | 96 ft | 23 kts | 276° |
| 2026-04-25 02:04 | 18.57895 | -69.98488 | 96 ft | 0 kts | 186° |
| 2026-04-25 02:05 | 18.57625 | -69.98520 | 96 ft | 103 kts | 186° |
| 2026-04-25 02:05 | 18.56592 | -69.98637 | 659 ft | 170 kts | 185° |
| 2026-04-25 02:06 | 18.55234 | -69.98600 | 1644 ft | 228 kts | 174° |
| 2026-04-25 02:06 | 18.53524 | -69.98235 | 2634 ft | 273 kts | 166° |
| 2026-04-25 02:06 | 18.51597 | -69.97608 | 3661 ft | 299 kts | 158° |
| 2026-04-25 02:06 | 18.49727 | -69.96762 | 5217 ft | 294 kts | 156° |
| 2026-04-25 02:07 | 18.47831 | -69.95897 | 6789 ft | 300 kts | 156° |
| 2026-04-25 02:07 | 18.45931 | -69.95006 | 8337 ft | 304 kts | 156° |
| 2026-04-25 02:07 | 18.44048 | -69.93994 | 9956 ft | 306 kts | 144° |
| 2026-04-25 02:07 | 18.42747 | -69.92266 | 11448 ft | 310 kts | 115° |
| 2026-04-25 02:08 | 18.42354 | -69.90041 | 13042 ft | 311 kts | 92° |
| 2026-04-25 02:08 | 18.42433 | -69.87772 | 14558 ft | 311 kts | 88° |
| 2026-04-25 02:08 | 18.42603 | -69.85491 | 16003 ft | 312 kts | 87° |
| 2026-04-25 02:08 | 18.42724 | -69.83217 | 17492 ft | 311 kts | 90° |
| 2026-04-25 02:09 | 18.42804 | -69.80943 | 18933 ft | 309 kts | 90° |
| 2026-04-25 02:09 | 18.42892 | -69.78687 | 20311 ft | 306 kts | 90° |
| 2026-04-25 02:09 | 18.42997 | -69.76470 | 21756 ft | 299 kts | 90° |
| 2026-04-25 02:09 | 18.43092 | -69.74319 | 23263 ft | 289 kts | 91° |
| 2026-04-25 02:10 | 18.43184 | -69.72256 | 24595 ft | 275 kts | 92° |
| 2026-04-25 02:10 | 18.43263 | -69.70156 | 25194 ft | 302 kts | 92° |
| 2026-04-25 02:10 | 18.43358 | -69.67845 | 25654 ft | 329 kts | 92° |
| 2026-04-25 02:10 | 18.43255 | -69.65371 | 26133 ft | 346 kts | 104° |
| 2026-04-25 02:11 | 18.42881 | -69.62798 | 26637 ft | 367 kts | 104° |
| 2026-04-25 02:11 | 18.42506 | -69.60097 | 27143 ft | 386 kts | 103° |
| 2026-04-25 02:11 | 18.42133 | -69.57235 | 27675 ft | 402 kts | 103° |
| 2026-04-25 02:11 | 18.41739 | -69.54264 | 28197 ft | 417 kts | 103° |
| 2026-04-25 02:12 | 18.41323 | -69.51192 | 28739 ft | 429 kts | 103° |
| 2026-04-25 02:12 | 18.40891 | -69.48037 | 29284 ft | 441 kts | 103° |
| 2026-04-25 02:12 | 18.40460 | -69.44812 | 29835 ft | 450 kts | 103° |
| 2026-04-25 02:12 | 18.40014 | -69.41524 | 30338 ft | 457 kts | 103° |
| 2026-04-25 02:13 | 18.39560 | -69.38149 | 30817 ft | 463 kts | 103° |
| 2026-04-25 02:13 | 18.39097 | -69.34774 | 31287 ft | 468 kts | 103° |
| 2026-04-25 02:13 | 18.38638 | -69.31368 | 31774 ft | 471 kts | 103° |
| 2026-04-25 02:13 | 18.38166 | -69.27929 | 32014 ft | 481 kts | 103° |
| 2026-04-25 02:14 | 18.37697 | -69.24455 | 32022 ft | 477 kts | 103° |
| 2026-04-25 02:14 | 18.36777 | -69.17683 | 32025 ft | 461 kts | 103° |
| 2026-04-25 02:15 | 18.35872 | -69.11111 | 32015 ft | 447 kts | 104° |
| 2026-04-25 02:15 | 18.34995 | -69.04710 | 32017 ft | 437 kts | 104° |
| 2026-04-25 02:16 | 18.34127 | -68.98420 | 32017 ft | 431 kts | 104° |
| 2026-04-25 02:16 | 18.33269 | -68.92202 | 32019 ft | 427 kts | 104° |
| 2026-04-25 02:17 | 18.32417 | -68.86039 | 32019 ft | 424 kts | 104° |
| 2026-04-25 02:17 | 18.31568 | -68.79918 | 32020 ft | 421 kts | 104° |
| 2026-04-25 02:18 | 18.30719 | -68.73825 | 32021 ft | 420 kts | 104° |
| 2026-04-25 02:18 | 18.29879 | -68.67799 | 32021 ft | 418 kts | 104° |
| 2026-04-25 02:19 | 18.29033 | -68.61752 | 32020 ft | 417 kts | 104° |
| 2026-04-25 02:19 | 18.28188 | -68.55718 | 31999 ft | 417 kts | 104° |
| 2026-04-25 02:20 | 18.27341 | -68.49689 | 31999 ft | 416 kts | 104° |
| 2026-04-25 02:20 | 18.26495 | -68.43670 | 31996 ft | 415 kts | 104° |
| 2026-04-25 02:21 | 18.25640 | -68.37666 | 31995 ft | 414 kts | 105° |
| 2026-04-25 02:21 | 18.24739 | -68.31719 | 31993 ft | 414 kts | 105° |
| 2026-04-25 02:22 | 18.23856 | -68.25732 | 31990 ft | 414 kts | 105° |
| 2026-04-25 02:22 | 18.22961 | -68.19759 | 31989 ft | 413 kts | 105° |
| 2026-04-25 02:23 | 18.22063 | -68.13759 | 31989 ft | 418 kts | 105° |
| 2026-04-25 02:23 | 18.21150 | -68.07669 | 31995 ft | 424 kts | 104° |
| 2026-04-25 02:24 | 18.20224 | -68.01503 | 32003 ft | 429 kts | 104° |
| 2026-04-25 02:24 | 18.19546 | -67.95224 | 31826 ft | 441 kts | 92° |
| 2026-04-25 02:24 | 18.19886 | -67.92014 | 31421 ft | 442 kts | 84° |
| 2026-04-25 02:25 | 18.20329 | -67.88832 | 31025 ft | 439 kts | 84° |
| 2026-04-25 02:25 | 18.20772 | -67.85650 | 30632 ft | 437 kts | 84° |
| 2026-04-25 02:25 | 18.21218 | -67.82504 | 30246 ft | 435 kts | 84° |
| 2026-04-25 02:25 | 18.21659 | -67.79408 | 29832 ft | 432 kts | 84° |
| 2026-04-25 02:26 | 18.22096 | -67.76279 | 29382 ft | 430 kts | 84° |
| 2026-04-25 02:26 | 18.22530 | -67.73180 | 28940 ft | 428 kts | 84° |
| 2026-04-25 02:26 | 18.22964 | -67.70081 | 28501 ft | 426 kts | 84° |
| 2026-04-25 02:26 | 18.23396 | -67.67006 | 28073 ft | 423 kts | 84° |
| 2026-04-25 02:27 | 18.23815 | -67.64003 | 27652 ft | 420 kts | 84° |
| 2026-04-25 02:27 | 18.24239 | -67.60968 | 27236 ft | 418 kts | 84° |
| 2026-04-25 02:27 | 18.24661 | -67.57951 | 26824 ft | 415 kts | 84° |
| 2026-04-25 02:27 | 18.25078 | -67.54953 | 26412 ft | 413 kts | 84° |
| 2026-04-25 02:28 | 18.25493 | -67.51971 | 26020 ft | 410 kts | 84° |
| 2026-04-25 02:28 | 18.25904 | -67.49015 | 25626 ft | 408 kts | 84° |
| 2026-04-25 02:28 | 18.26309 | -67.46109 | 25239 ft | 405 kts | 84° |
| 2026-04-25 02:28 | 18.26713 | -67.43182 | 24859 ft | 403 kts | 84° |
| 2026-04-25 02:29 | 18.27113 | -67.40307 | 24481 ft | 400 kts | 84° |
| 2026-04-25 02:29 | 18.27515 | -67.37386 | 24102 ft | 398 kts | 84° |
| 2026-04-25 02:29 | 18.27914 | -67.34516 | 23733 ft | 396 kts | 84° |
| 2026-04-25 02:29 | 18.28307 | -67.31660 | 23326 ft | 393 kts | 84° |
| 2026-04-25 02:30 | 18.28700 | -67.28820 | 22884 ft | 391 kts | 84° |
| 2026-04-25 02:30 | 18.29087 | -67.25998 | 22454 ft | 389 kts | 84° |
| 2026-04-25 02:30 | 18.29474 | -67.23200 | 22025 ft | 387 kts | 84° |
| 2026-04-25 02:30 | 18.29857 | -67.20407 | 21604 ft | 384 kts | 84° |
| 2026-04-25 02:31 | 18.30237 | -67.17638 | 21190 ft | 383 kts | 83° |
| 2026-04-25 02:31 | 18.30619 | -67.14867 | 20784 ft | 381 kts | 84° |
| 2026-04-25 02:31 | 18.30995 | -67.12117 | 20379 ft | 379 kts | 83° |
| 2026-04-25 02:31 | 18.31368 | -67.09384 | 20028 ft | 376 kts | 83° |
| 2026-04-25 02:32 | 18.31733 | -67.06722 | 20009 ft | 362 kts | 83° |
| 2026-04-25 02:32 | 18.32089 | -67.04125 | 20003 ft | 351 kts | 83° |
| 2026-04-25 02:32 | 18.32433 | -67.01609 | 19924 ft | 345 kts | 84° |
| 2026-04-25 02:32 | 18.32771 | -66.99104 | 19663 ft | 346 kts | 83° |
| 2026-04-25 02:33 | 18.33114 | -66.96598 | 19411 ft | 347 kts | 83° |
| 2026-04-25 02:33 | 18.33454 | -66.94086 | 19158 ft | 347 kts | 83° |
| 2026-04-25 02:33 | 18.33799 | -66.91569 | 18909 ft | 347 kts | 83° |
| 2026-04-25 02:33 | 18.34137 | -66.89056 | 18667 ft | 346 kts | 83° |
| 2026-04-25 02:34 | 18.34479 | -66.86554 | 18422 ft | 346 kts | 83° |
| 2026-04-25 02:34 | 18.34817 | -66.84051 | 18163 ft | 345 kts | 83° |
| 2026-04-25 02:34 | 18.35155 | -66.81559 | 17882 ft | 344 kts | 83° |
| 2026-04-25 02:34 | 18.35490 | -66.79066 | 17607 ft | 343 kts | 83° |
| 2026-04-25 02:35 | 18.35828 | -66.76583 | 17329 ft | 341 kts | 83° |
| 2026-04-25 02:35 | 18.36163 | -66.74084 | 16777 ft | 348 kts | 83° |
| 2026-04-25 02:35 | 18.36506 | -66.71540 | 16201 ft | 353 kts | 83° |
| 2026-04-25 02:35 | 18.36856 | -66.68967 | 15631 ft | 356 kts | 83° |
| 2026-04-25 02:36 | 18.37199 | -66.66386 | 15077 ft | 357 kts | 83° |
| 2026-04-25 02:36 | 18.37552 | -66.63792 | 14526 ft | 357 kts | 83° |
| 2026-04-25 02:36 | 18.37890 | -66.61243 | 13997 ft | 356 kts | 83° |
| 2026-04-25 02:36 | 18.38007 | -66.60370 | 13814 ft | 355 kts | 83° |
| 2026-04-25 02:37 | 18.38228 | -66.58744 | 13431 ft | 354 kts | 83° |
| 2026-04-25 02:37 | 18.38571 | -66.56184 | 13127 ft | 345 kts | 83° |
| 2026-04-25 02:37 | 18.38902 | -66.53711 | 12626 ft | 335 kts | 83° |
| 2026-04-25 02:37 | 18.39218 | -66.51348 | 12037 ft | 318 kts | 83° |
| 2026-04-25 02:38 | 18.39518 | -66.49098 | 11452 ft | 305 kts | 83° |
| 2026-04-25 02:38 | 18.39812 | -66.46925 | 10875 ft | 294 kts | 83° |
| 2026-04-25 02:38 | 18.40086 | -66.44825 | 10306 ft | 286 kts | 83° |
| 2026-04-25 02:38 | 18.40362 | -66.42780 | 9739 ft | 279 kts | 83° |
| 2026-04-25 02:39 | 18.40625 | -66.40778 | 9173 ft | 272 kts | 83° |
| 2026-04-25 02:39 | 18.40889 | -66.38827 | 8618 ft | 265 kts | 83° |
| 2026-04-25 02:39 | 18.41139 | -66.36921 | 8075 ft | 260 kts | 83° |
| 2026-04-25 02:39 | 18.41387 | -66.35063 | 7541 ft | 255 kts | 83° |
| 2026-04-25 02:40 | 18.41632 | -66.33222 | 7017 ft | 251 kts | 83° |
| 2026-04-25 02:40 | 18.41871 | -66.31413 | 6503 ft | 248 kts | 83° |
| 2026-04-25 02:40 | 18.42029 | -66.30229 | 6145 ft | 245 kts | 83° |
| 2026-04-25 02:40 | 18.42338 | -66.27897 | 5430 ft | 241 kts | 83° |
| 2026-04-25 02:41 | 18.42493 | -66.26732 | 5074 ft | 239 kts | 83° |
| 2026-04-25 02:41 | 18.42721 | -66.24984 | 4532 ft | 237 kts | 83° |
| 2026-04-25 02:41 | 18.42950 | -66.23274 | 4017 ft | 234 kts | 83° |
| 2026-04-25 02:41 | 18.43166 | -66.21622 | 3726 ft | 225 kts | 83° |
| 2026-04-25 02:42 | 18.43380 | -66.19979 | 3434 ft | 229 kts | 84° |
| 2026-04-25 02:42 | 18.43371 | -66.17744 | 3026 ft | 232 kts | 92° |
| 2026-04-25 02:42 | 18.43379 | -66.16032 | 2715 ft | 234 kts | 90° |
| 2026-04-25 02:42 | 18.43379 | -66.14872 | 2507 ft | 235 kts | 91° |
| 2026-04-25 02:43 | 18.43381 | -66.13144 | 2188 ft | 236 kts | 90° |
| 2026-04-25 02:43 | 18.43376 | -66.11413 | 1875 ft | 237 kts | 91° |
| 2026-04-25 02:43 | 18.43373 | -66.09789 | 1575 ft | 229 kts | 91° |
| 2026-04-25 02:43 | 18.43372 | -66.08324 | 1496 ft | 182 kts | 91° |
| 2026-04-25 02:44 | 18.43372 | -66.07108 | 1374 ft | 155 kts | 91° |
| 2026-04-25 02:44 | 18.43389 | -66.05993 | 1038 ft | 151 kts | 90° |
| 2026-04-25 02:44 | 18.43419 | -66.04887 | 796 ft | 151 kts | 93° |
| 2026-04-25 02:44 | 18.43371 | -66.03767 | 457 ft | 153 kts | 92° |
| 2026-04-25 02:45 | 18.43369 | -66.02641 | 229 ft | 154 kts | 90° |
| 2026-04-25 02:45 | 18.43361 | -66.01522 | 27 ft | 146 kts | 91° |
| 2026-04-25 02:45 | 18.43361 | -66.00591 | -39 ft | 109 kts | 90° |
| 2026-04-25 02:45 | 18.43354 | -65.99914 | -35 ft | 77 kts | 91° |
| 2026-04-25 02:46 | 18.43364 | -65.99602 | -37 ft | 21 kts | 67° |
| 2026-04-25 02:46 | 18.43463 | -65.99570 | -41 ft | 17 kts | 282° |
| 2026-04-25 02:46 | 18.43465 | -65.99705 | -35 ft | 20 kts | 271° |
| 2026-04-25 02:46 | 18.43466 | -65.99857 | -34 ft | 21 kts | 270° |
| 2026-04-25 02:47 | 18.43466 | -65.99881 | -34 ft | 0 kts | 271° |
| 2026-04-25 02:47 | 18.43466 | -65.99885 | -34 ft | 5 kts | 277° |
| 2026-04-25 02:47 | 18.43507 | -65.99915 | -30 ft | 9 kts | 352° |
| 2026-04-25 02:48 | 18.43597 | -65.99954 | -29 ft | 21 kts | 339° |
| 2026-04-25 02:48 | 18.43760 | -66.00012 | -30 ft | 16 kts | 344° |
| 2026-04-25 02:48 | 18.43783 | -66.00018 | -38 ft | 12 kts | 346° |
| 2026-04-25 02:48 | 18.43881 | -66.00038 | -39 ft | 16 kts | 351° |
| 2026-04-25 02:49 | 18.43987 | -66.00037 | -30 ft | 13 kts | 48° |
| 2026-04-25 02:49 | 18.44008 | -66.00042 | -30 ft | 1 kts | 238° |